Wallace, KS (67761)

4:49 AM MDT on July 23, 2016 (GMT -0600)
Rattlesnake Ridge | | Change Station

Elev 3311 ft 38.89 °N, 101.58 °W | Updated 4 seconds ago

Clear
Clear
73.6 °F
Feels Like 75 °F
N
3.0
Wind Variable Wind from East
Gusts 10.0 mph

Today
High -- | Low -- °F
--% Chance of Precip.
Yesterday
High -- | Low -- °F
Precip. -- in
Pressure 29.79 in
Visibility 10.0 miles
Clouds Clear
Heat Index 75 °F
Dew Point 64 °F
Humidity 72%
Rainfall 0.00 in
Snow Depth Not available.
5:39 AM 8:05 PM
Waning Gibbous, 86% visible
METAR KGLD 230953Z AUTO 11007KT 10SM CLR 20/19 A2996 RMK AO2 SLP088 T02000189
Pressure 29.79 in
Visibility 10.0 miles
Clouds Clear
Heat Index 75 °F
Dew Point 64 °F
Humidity 72%
Rainfall 0.00 in
Snow Depth Not available.
5:39 AM 8:05 PM
Waning Gibbous, 86% visible
METAR KGLD 230953Z AUTO 11007KT 10SM CLR 20/19 A2996 RMK AO2 SLP088 T02000189

10-Day Weather Forecast

Almanac

Astronomy

Jul. 23, 2016 Rise Set
Actual Time
Civil Twilight
Nautical Twilight
Astronomical Twilight
Moon
Length of Visible Light
Length of Day
Tomorrow will be .
, % of the Moon is Illuminated

Today's Extremes

State Highs State Lows

Community

WunderPhotos

Upload Photos

1,926,793 photos uploaded!

WunderBlog® & News

Nearby

Air Quality

  Air Quality AQ Index Pollutant
Not available.

Snow Depth

Station Depth Elevation

Earthquake Activity

City Distance Mag. Time & Date
Minimum magnitude displayed is 2.5.

Coastal Water Temperatures

Place Temperature

Stations

Nearby Weather Stations

Station Location Temp. Windchill Dew Point Humidity Wind Precip. Elev Updated Type
                   

Watches & Warnings

There are currently no watches in effect.